createdAt,value
2022-09-15T00:02:10.413Z,8.10
2022-09-15T00:07:10.073Z,9.50
2022-09-15T00:12:10.023Z,8.40
2022-09-15T00:17:10.004Z,6.00
2022-09-15T00:22:09.864Z,7.60
2022-09-15T00:27:09.839Z,8.10
2022-09-15T00:32:09.967Z,8.40
2022-09-15T00:37:09.746Z,8.20
2022-09-15T00:42:09.634Z,10.10
2022-09-15T00:47:19.083Z,9.90
2022-09-15T00:52:10.465Z,10.10
2022-09-15T00:57:09.441Z,8.60
2022-09-15T01:02:09.381Z,9.20
2022-09-15T01:07:09.309Z,11.00
2022-09-15T01:12:09.226Z,10.70
2022-09-15T01:17:09.140Z,9.90
2022-09-15T01:22:09.068Z,8.90
2022-09-15T01:27:24.442Z,11.20
2022-09-15T01:32:09.958Z,7.80
2022-09-15T01:37:08.906Z,8.70
2022-09-15T01:42:08.882Z,9.70
2022-09-15T01:47:08.774Z,8.50
2022-09-15T01:52:08.933Z,10.80
2022-09-15T01:57:08.634Z,12.90
2022-09-15T02:02:08.610Z,12.00
2022-09-15T02:07:08.497Z,14.30
2022-09-15T02:12:08.481Z,14.80
2022-09-15T02:17:08.372Z,14.20
2022-09-15T02:22:08.291Z,15.40
2022-09-15T02:27:08.261Z,15.60
2022-09-15T02:32:08.233Z,14.60
2022-09-15T02:37:08.099Z,9.30
2022-09-15T02:42:08.024Z,16.20
2022-09-15T02:47:07.981Z,13.50
2022-09-15T02:52:07.901Z,13.10
2022-09-15T02:57:08.004Z,11.80
2022-09-15T03:02:07.769Z,9.80
2022-09-15T03:07:07.734Z,12.50
2022-09-15T03:12:07.617Z,12.70
2022-09-15T03:17:07.597Z,10.70
2022-09-15T03:22:07.515Z,12.40
2022-09-15T03:27:07.513Z,11.90
2022-09-15T03:32:07.384Z,13.50
2022-09-15T03:37:07.308Z,11.10
2022-09-15T03:42:07.246Z,9.40
2022-09-15T03:47:07.218Z,12.80
2022-09-15T03:52:07.113Z,11.40
2022-09-15T03:57:07.050Z,13.20
2022-09-15T04:02:07.020Z,10.90
2022-09-15T04:07:06.970Z,14.80
2022-09-15T04:12:06.976Z,14.70
2022-09-15T04:17:06.772Z,13.60
2022-09-15T04:22:06.709Z,15.10
2022-09-15T04:27:06.641Z,11.90
2022-09-15T04:32:06.621Z,15.30
2022-09-15T04:37:06.536Z,15.10
2022-09-15T04:42:06.449Z,14.20
2022-09-15T04:47:06.493Z,12.40
2022-09-15T04:52:09.631Z,13.10
2022-09-15T04:57:06.282Z,14.50
2022-09-15T05:02:06.245Z,16.20
2022-09-15T05:07:06.294Z,16.10
2022-09-15T05:12:06.089Z,15.70
2022-09-15T05:17:06.004Z,16.90
2022-09-15T05:22:05.935Z,17.60
2022-09-15T05:27:05.910Z,16.80
2022-09-15T05:32:05.783Z,17.70
2022-09-15T05:37:05.708Z,20.00
2022-09-15T05:42:05.659Z,18.10
2022-09-15T05:47:05.598Z,20.40
2022-09-15T05:52:05.525Z,20.10
2022-09-15T05:57:05.483Z,15.80
2022-09-15T06:02:05.449Z,17.70
2022-09-15T06:07:05.315Z,17.90
2022-09-15T06:12:05.415Z,17.70
2022-09-15T06:17:05.211Z,16.80
2022-09-15T06:22:05.158Z,15.50
2022-09-15T06:27:05.073Z,16.40
2022-09-15T06:32:05.157Z,15.30
2022-09-15T06:37:04.940Z,15.00
2022-09-15T06:42:05.922Z,13.40
2022-09-15T06:47:04.778Z,10.90
2022-09-15T06:52:04.751Z,11.00
2022-09-15T06:57:04.691Z,12.10
2022-09-15T07:02:05.373Z,11.70
2022-09-15T07:07:04.574Z,10.10
2022-09-15T07:12:04.499Z,8.80
2022-09-15T07:17:04.703Z,10.30
2022-09-15T07:22:04.374Z,10.40
2022-09-15T07:27:04.279Z,10.80
2022-09-15T07:32:04.303Z,9.30
2022-09-15T07:37:04.193Z,8.40
2022-09-15T07:42:04.056Z,10.70
2022-09-15T07:47:04.046Z,12.90
2022-09-15T07:52:04.955Z,10.90
2022-09-15T07:57:03.895Z,10.50
2022-09-15T08:02:03.862Z,8.40
2022-09-15T08:07:03.780Z,8.40
2022-09-15T08:12:03.735Z,10.70
2022-09-15T08:17:07.022Z,8.40
2022-09-15T08:22:04.694Z,9.40
2022-09-15T08:27:03.504Z,10.30
2022-09-15T08:32:03.429Z,9.20
2022-09-15T08:37:03.338Z,11.60
2022-09-15T08:42:03.266Z,12.20
2022-09-15T08:47:03.235Z,11.90
2022-09-15T08:52:03.158Z,12.60
2022-09-15T08:57:03.070Z,12.30
2022-09-15T09:02:03.122Z,8.30
2022-09-15T09:07:02.945Z,10.80
2022-09-15T09:12:02.883Z,10.00
2022-09-15T09:17:02.852Z,8.00
2022-09-15T09:22:02.797Z,9.00
2022-09-15T09:27:02.911Z,9.30
2022-09-15T09:32:02.619Z,9.20
2022-09-15T09:37:02.579Z,7.10
2022-09-15T09:42:02.526Z,6.80
2022-09-15T09:47:02.446Z,6.30
2022-09-15T09:52:02.393Z,6.50
2022-09-15T09:57:02.323Z,9.70
2022-09-15T10:02:02.233Z,5.90
2022-09-15T10:07:02.211Z,6.80
2022-09-15T10:12:02.263Z,6.60
2022-09-15T10:17:02.161Z,7.50
2022-09-15T10:22:02.025Z,6.10
2022-09-15T10:27:02.247Z,7.60
2022-09-15T10:32:01.984Z,6.80
2022-09-15T10:37:01.914Z,5.60
2022-09-15T10:42:01.736Z,7.00
2022-09-15T10:47:01.671Z,6.00
2022-09-15T10:52:01.584Z,4.80
2022-09-15T10:57:01.523Z,4.90
2022-09-15T11:02:01.501Z,5.40
2022-09-15T11:07:01.404Z,4.90
2022-09-15T11:12:01.323Z,3.80
2022-09-15T11:17:01.253Z,5.60
2022-09-15T11:22:01.221Z,7.40
2022-09-15T11:27:01.107Z,6.60
2022-09-15T11:37:01.085Z,6.90
2022-09-15T11:42:00.948Z,5.10
2022-09-15T11:47:00.912Z,6.30
2022-09-15T11:52:00.799Z,5.20
2022-09-15T11:57:00.782Z,5.10
2022-09-15T12:02:00.700Z,4.90
2022-09-15T12:12:00.521Z,5.40
2022-09-15T12:17:00.559Z,5.50
2022-09-15T12:22:00.394Z,4.80
2022-09-15T12:27:00.341Z,2.90
2022-09-15T12:32:00.264Z,6.90
2022-09-15T12:42:00.213Z,4.30
2022-09-15T12:47:00.131Z,5.60
2022-09-15T12:52:00.068Z,4.40
2022-09-15T12:57:00.007Z,3.80
2022-09-15T13:01:59.913Z,5.10
2022-09-15T13:06:59.793Z,7.50
2022-09-15T13:11:59.772Z,5.90
2022-09-15T13:16:59.678Z,5.70
2022-09-15T13:21:59.619Z,4.90
2022-09-15T13:26:59.548Z,5.90
2022-09-15T13:31:59.479Z,7.20
2022-09-15T13:42:00.339Z,5.60
2022-09-15T13:46:59.682Z,6.40
2022-09-15T13:51:59.202Z,5.20
2022-09-15T13:56:59.172Z,8.60
2022-09-15T14:01:59.177Z,6.40
2022-09-15T14:07:00.982Z,3.80
2022-09-15T14:11:58.955Z,5.50
2022-09-15T14:16:58.968Z,4.70
2022-09-15T14:21:58.978Z,4.10
2022-09-15T14:26:58.761Z,4.80
2022-09-15T14:31:58.756Z,4.20
2022-09-15T14:36:58.635Z,6.00
2022-09-15T14:46:58.498Z,4.50
2022-09-15T14:51:58.590Z,3.40
2022-09-15T14:56:58.367Z,5.20
2022-09-15T15:01:58.368Z,3.50
2022-09-15T15:06:58.240Z,6.00
2022-09-15T15:11:58.195Z,4.70
2022-09-15T15:16:58.229Z,4.00
2022-09-15T15:21:59.378Z,4.90
2022-09-15T15:26:58.001Z,4.50
2022-09-15T15:31:57.934Z,4.50
2022-09-15T15:36:57.844Z,4.60
2022-09-15T15:41:57.879Z,4.20
2022-09-15T15:46:57.712Z,3.80
2022-09-15T15:51:57.638Z,4.80
2022-09-15T15:56:57.713Z,4.70
2022-09-15T16:01:57.633Z,5.20
2022-09-15T16:06:57.464Z,5.80
2022-09-15T16:16:58.265Z,5.00
2022-09-15T16:21:57.247Z,3.80
2022-09-15T16:26:57.226Z,4.50
2022-09-15T16:31:57.158Z,5.10
2022-09-15T16:36:57.019Z,4.00
2022-09-15T16:41:57.046Z,4.50
2022-09-15T16:46:56.977Z,5.80
2022-09-15T16:51:56.867Z,3.90
2022-09-15T16:56:56.791Z,4.10
2022-09-15T17:01:56.919Z,4.50
2022-09-15T17:06:56.646Z,3.60
2022-09-15T17:11:56.591Z,4.20
2022-09-15T17:16:56.563Z,4.30
2022-09-15T17:21:56.494Z,3.60
2022-09-15T17:26:56.405Z,4.60
2022-09-15T17:31:56.310Z,4.70
2022-09-15T17:36:56.303Z,5.70
2022-09-15T17:41:56.291Z,4.90
2022-09-15T17:46:56.196Z,6.50
2022-09-15T17:51:56.052Z,5.70
2022-09-15T17:56:55.995Z,6.40
2022-09-15T18:01:56.024Z,6.30
2022-09-15T18:06:56.044Z,5.80
2022-09-15T18:11:55.797Z,5.60
2022-09-15T18:16:55.823Z,5.00
2022-09-15T18:21:55.682Z,6.40
2022-09-15T18:26:55.607Z,6.20
2022-09-15T18:31:55.536Z,5.30
2022-09-15T18:36:55.476Z,5.60
2022-09-15T18:41:55.431Z,4.60
2022-09-15T18:46:55.317Z,4.70
2022-09-15T18:51:55.281Z,4.10
2022-09-15T18:56:55.207Z,5.50
2022-09-15T19:01:55.508Z,5.40
2022-09-15T19:06:55.084Z,3.80
2022-09-15T19:11:55.198Z,4.90
2022-09-15T19:16:58.187Z,4.00
2022-09-15T19:21:54.901Z,5.90
2022-09-15T19:26:54.790Z,3.90
2022-09-15T19:31:54.759Z,4.50
2022-09-15T19:36:54.681Z,4.70
2022-09-15T19:41:54.633Z,5.80
2022-09-15T19:46:54.521Z,4.70
2022-09-15T19:51:54.495Z,5.50
2022-09-15T19:56:54.490Z,5.00
2022-09-15T20:01:54.332Z,6.40
2022-09-15T20:06:54.285Z,5.80
2022-09-15T20:11:54.212Z,4.60
2022-09-15T20:16:57.357Z,4.80
2022-09-15T20:21:55.068Z,5.10
2022-09-15T20:26:54.019Z,5.70
2022-09-15T20:31:53.999Z,3.50
2022-09-15T20:36:53.950Z,4.20
2022-09-15T20:41:53.843Z,4.60
2022-09-15T20:46:53.750Z,3.80
2022-09-15T20:51:53.676Z,3.70
2022-09-15T20:56:53.625Z,4.30
2022-09-15T21:01:53.565Z,5.80
2022-09-15T21:06:53.467Z,3.50
2022-09-15T21:11:53.777Z,3.20
2022-09-15T21:16:53.395Z,5.20
2022-09-15T21:21:53.624Z,4.70
2022-09-15T21:26:53.282Z,4.20
2022-09-15T21:31:53.217Z,3.10
2022-09-15T21:36:53.084Z,4.30
2022-09-15T21:41:53.068Z,4.00
2022-09-15T21:46:53.083Z,2.70
2022-09-15T21:51:52.922Z,2.30
2022-09-15T21:56:52.936Z,2.70
2022-09-15T22:01:52.815Z,4.20
2022-09-15T22:06:52.739Z,4.70
2022-09-15T22:11:52.640Z,2.70
2022-09-15T22:16:52.580Z,3.50
2022-09-15T22:21:52.523Z,4.70
2022-09-15T22:26:52.625Z,3.20
2022-09-15T22:31:52.423Z,5.80
2022-09-15T22:36:52.410Z,3.10
2022-09-15T22:41:52.248Z,3.00
2022-09-15T22:46:52.193Z,2.10
2022-09-15T22:51:52.120Z,4.30
2022-09-15T22:56:52.063Z,2.40
2022-09-15T23:01:52.007Z,3.80
2022-09-15T23:06:51.910Z,3.80
2022-09-15T23:11:51.850Z,3.40
2022-09-15T23:16:51.863Z,4.60
2022-09-15T23:21:51.726Z,6.40
2022-09-15T23:26:51.798Z,5.40
2022-09-15T23:31:51.830Z,4.80
2022-09-15T23:36:51.499Z,5.90
2022-09-15T23:41:51.471Z,3.70
2022-09-15T23:46:51.485Z,2.70
2022-09-15T23:51:51.381Z,3.70
2022-09-15T23:56:51.238Z,2.90
